Time;durP1;ratioP1;P1;durP2;ratioP2;P2;SDS_P1;SDS_P2;PMS_P1;PMS_P2;Temp;Humidity;BMP_temperature;BMP_pressure;BME280_temperature;BME280_humidity;BME280_pressure;Samples;Min_cycle;Max_cycle;Signal;HPM_P1;HPM_P2
2021/05/11 02:46:52;;;;;;;9.65;3.70;;;15.20;83.50;;;;;;5156109;24;20061;-77
2021/05/11 02:49:19;;;;;;;7.75;3.97;;;15.20;83.30;;;;;;4837963;29;20034;-78
2021/05/11 02:51:45;;;;;;;6.85;3.88;;;15.20;83.60;;;;;;4845717;29;20026;-77
2021/05/11 02:54:11;;;;;;;8.40;4.22;;;15.20;84.00;;;;;;4849499;29;20041;-77
2021/05/11 02:56:37;;;;;;;7.10;4.20;;;15.10;83.70;;;;;;4861552;29;20100;-77
2021/05/11 02:59:03;;;;;;;9.75;4.25;;;15.10;83.90;;;;;;4849820;29;20026;-78
2021/05/11 03:01:28;;;;;;;10.52;5.00;;;15.00;84.00;;;;;;4829548;29;20217;-77
2021/05/11 03:03:54;;;;;;;8.18;4.32;;;15.00;84.60;;;;;;4823478;29;20070;-78
2021/05/11 03:06:20;;;;;;;10.43;4.15;;;15.00;84.40;;;;;;4835280;29;20329;-78
2021/05/11 03:08:45;;;;;;;10.00;4.13;;;14.90;84.40;;;;;;4850273;29;20595;-77
2021/05/11 03:11:11;;;;;;;9.70;4.97;;;14.90;84.40;;;;;;4840785;29;20082;-78
2021/05/11 03:13:37;;;;;;;10.98;4.47;;;14.80;85.10;;;;;;4838165;29;20129;-77
2021/05/11 03:16:03;;;;;;;11.07;4.57;;;14.80;85.30;;;;;;4847803;29;20060;-78
2021/05/11 03:18:29;;;;;;;5.90;3.97;;;14.80;85.20;;;;;;4850785;29;20057;-78
2021/05/11 03:20:54;;;;;;;6.05;4.35;;;14.70;85.10;;;;;;4826304;29;20078;-77
2021/05/11 03:23:20;;;;;;;8.20;4.63;;;14.70;85.20;;;;;;4872402;29;20032;-78
2021/05/11 03:25:46;;;;;;;11.45;4.90;;;14.70;85.70;;;;;;4855881;29;20033;-78
2021/05/11 03:28:12;;;;;;;7.65;4.40;;;14.70;85.50;;;;;;4855560;29;20033;-77
2021/05/11 03:30:40;;;;;;;8.98;4.68;;;14.60;85.70;;;;;;4841012;29;20185;-77
2021/05/11 03:33:06;;;;;;;9.63;4.60;;;14.60;85.60;;;;;;4841011;29;20081;-77
2021/05/11 03:35:32;;;;;;;10.80;4.57;;;14.60;85.90;;;;;;4858894;29;20033;-77
2021/05/11 03:37:57;;;;;;;10.88;4.50;;;14.60;86.30;;;;;;4847262;29;20022;-77
2021/05/11 03:40:23;;;;;;;12.43;4.38;;;14.60;86.30;;;;;;4857428;29;20036;-78
2021/05/11 03:42:55;;;;;;;11.02;5.22;;;14.60;86.50;;;;;;4849351;29;20052;-77
2021/05/11 03:45:25;;;;;;;7.30;4.18;;;14.60;86.60;;;;;;4851768;29;20034;-78
2021/05/11 03:47:54;;;;;;;16.48;4.97;;;14.60;86.80;;;;;;4838671;29;20054;-78
2021/05/11 03:50:20;;;;;;;10.73;4.75;;;14.60;87.20;;;;;;4825078;29;20334;-78
2021/05/11 03:52:45;;;;;;;8.63;4.53;;;14.60;87.50;;;;;;4838453;29;20327;-77
2021/05/11 03:55:12;;;;;;;12.30;5.07;;;14.60;87.90;;;;;;4822883;29;20034;-77
2021/05/11 03:57:37;;;;;;;13.25;4.55;;;14.70;87.60;;;;;;4841027;29;20023;-77
2021/05/11 04:00:04;;;;;;;10.00;4.63;;;14.70;87.30;;;;;;4828633;29;20351;-77
2021/05/11 04:02:30;;;;;;;7.63;4.38;;;14.70;87.30;;;;;;4840666;29;20089;-78
2021/05/11 04:04:56;;;;;;;9.70;4.00;;;14.80;87.40;;;;;;4835053;29;20039;-78
2021/05/11 04:07:22;;;;;;;11.88;4.40;;;14.90;88.20;;;;;;4819736;29;20046;-79
2021/05/11 04:09:57;;;;;;;9.57;4.30;;;15.00;88.40;;;;;;4841476;29;20037;-77
2021/05/11 04:17:44;;;;;;;12.95;4.43;;;15.30;87.10;;;;;;4859188;29;20037;-77
2021/05/11 04:20:12;;;;;;;11.13;5.07;;;15.40;86.30;;;;;;4838805;29;20046;-77
2021/05/11 04:22:38;;;;;;;9.20;5.22;;;15.50;86.80;;;;;;4810323;29;20057;-77
2021/05/11 04:25:04;;;;;;;10.43;4.13;;;15.60;86.20;;;;;;4831634;29;20031;-77
2021/05/11 04:27:29;;;;;;;12.27;4.47;;;15.70;85.80;;;;;;4841952;29;20055;-77
2021/05/11 04:29:59;;;;;;;10.55;5.32;;;15.80;85.50;;;;;;4835544;29;20074;-77
2021/05/11 04:32:25;;;;;;;16.88;5.60;;;15.90;85.50;;;;;;4824328;29;20229;-77
2021/05/11 04:34:51;;;;;;;15.73;5.05;;;16.00;86.00;;;;;;4834379;29;20037;-77
2021/05/11 04:37:17;;;;;;;16.77;5.88;;;16.10;85.50;;;;;;4836049;29;20034;-77
2021/05/11 04:39:43;;;;;;;17.83;4.90;;;16.20;85.00;;;;;;4846460;29;20410;-77
2021/05/11 04:42:08;;;;;;;14.10;4.95;;;16.30;84.50;;;;;;4847334;29;20022;-77
2021/05/11 04:44:35;;;;;;;15.27;5.05;;;16.40;84.70;;;;;;4816873;29;20041;-80
2021/05/11 04:47:15;;;;;;;23.70;5.90;;;16.50;84.30;;;;;;4838983;29;20110;-79
2021/05/11 04:49:41;;;;;;;9.88;4.25;;;16.60;83.90;;;;;;4844184;29;20038;-79
2021/05/11 04:52:07;;;;;;;8.73;3.58;;;16.70;84.10;;;;;;4839931;29;20046;-79
2021/05/11 04:54:33;;;;;;;8.77;3.25;;;16.80;84.50;;;;;;4825212;29;20339;-79
2021/05/11 04:56:59;;;;;;;12.40;3.60;;;16.90;83.70;;;;;;4819012;29;20061;-79
2021/05/11 04:59:25;;;;;;;6.30;2.90;;;17.00;83.60;;;;;;4842396;29;20045;-79
2021/05/11 05:01:52;;;;;;;11.75;3.30;;;17.20;83.30;;;;;;4846135;29;20056;-79
2021/05/11 05:04:18;;;;;;;6.43;3.10;;;17.40;82.80;;;;;;4818798;29;20090;-79
2021/05/11 05:06:44;;;;;;;8.93;3.33;;;17.50;82.00;;;;;;4820545;29;20030;-79
2021/05/11 05:09:10;;;;;;;4.70;3.15;;;17.60;81.30;;;;;;4816515;29;20221;-79
2021/05/11 05:11:40;;;;;;;8.15;2.88;;;17.80;81.20;;;;;;4837709;29;20029;-79
2021/05/11 05:14:07;;;;;;;10.05;2.85;;;17.90;79.80;;;;;;4844853;29;20058;-79
2021/05/11 05:16:33;;;;;;;7.78;2.78;;;18.10;79.10;;;;;;4825420;29;20071;-79
2021/05/11 05:18:59;;;;;;;11.45;3.10;;;18.20;78.00;;;;;;4842234;29;20321;-79
2021/05/11 05:21:24;;;;;;;5.45;2.55;;;18.30;77.60;;;;;;4841286;29;20030;-79
2021/05/11 05:24:00;;;;;;;7.78;2.95;;;18.40;76.80;;;;;;4835914;29;20060;-79
2021/05/11 05:26:28;;;;;;;11.13;2.63;;;18.60;76.70;;;;;;4834124;29;20053;-79
2021/05/11 05:28:55;;;;;;;9.70;2.50;;;18.70;76.00;;;;;;4842827;29;20144;-79
2021/05/11 05:31:20;;;;;;;4.65;2.80;;;18.80;74.90;;;;;;4845997;29;20221;-79
2021/05/11 05:33:46;;;;;;;8.55;2.65;;;19.00;73.80;;;;;;4828141;29;20045;-79
2021/05/11 05:36:12;;;;;;;7.82;2.95;;;19.20;73.70;;;;;;4845074;29;20045;-79
2021/05/11 05:38:40;;;;;;;4.22;2.60;;;19.30;72.00;;;;;;4829052;29;20026;-79
2021/05/11 05:41:10;;;;;;;9.43;2.58;;;19.40;71.40;;;;;;4866085;29;20033;-79
2021/05/11 05:43:36;;;;;;;15.23;2.75;;;19.50;71.60;;;;;;4829749;29;20100;-80
2021/05/11 05:46:01;;;;;;;12.93;3.10;;;19.70;71.00;;;;;;4856681;29;20089;-79
2021/05/11 05:48:27;;;;;;;5.22;2.83;;;19.80;70.80;;;;;;4839346;29;20042;-79
2021/05/11 05:50:59;;;;;;;10.23;2.50;;;20.00;68.90;;;;;;4846261;29;20119;-79
2021/05/11 05:53:31;;;;;;;11.23;2.40;;;20.30;68.70;;;;;;4858141;29;20147;-79
2021/05/11 05:55:57;;;;;;;6.03;2.53;;;21.00;67.50;;;;;;4845530;29;20038;-79
2021/05/11 05:58:23;;;;;;;6.55;2.10;;;21.80;63.70;;;;;;4835834;29;20305;-79
2021/05/11 06:00:56;;;;;;;9.95;2.10;;;22.40;61.50;;;;;;4827308;29;20037;-79
2021/05/11 06:03:36;;;;;;;6.65;2.17;;;22.50;58.90;;;;;;4839322;29;20074;-79
2021/05/11 06:06:07;;;;;;;10.18;2.65;;;22.60;59.20;;;;;;4851346;29;20278;-79
2021/05/11 06:08:35;;;;;;;5.38;1.95;;;22.90;58.00;;;;;;4841714;29;20049;-79
2021/05/11 06:11:15;;;;;;;4.20;2.25;;;23.00;58.50;;;;;;4839554;29;20382;-79
2021/05/11 06:13:51;;;;;;;7.28;2.15;;;23.00;56.70;;;;;;4830274;29;20369;-78
2021/05/11 06:19:02;;;;;;;12.75;2.30;;;23.10;56.70;;;;;;4847523;29;20332;-79
2021/05/11 06:21:28;;;;;;;4.88;2.47;;;23.20;55.70;;;;;;4833132;29;20030;-79
2021/05/11 06:23:54;;;;;;;5.32;2.30;;;23.20;56.40;;;;;;4862657;29;20278;-78
2021/05/11 06:26:20;;;;;;;9.52;2.25;;;23.30;55.40;;;;;;4819854;29;20037;-79
2021/05/11 06:28:45;;;;;;;9.52;2.45;;;23.30;55.10;;;;;;4831564;29;20033;-79
2021/05/11 06:31:11;;;;;;;6.50;2.67;;;23.30;55.80;;;;;;4836636;29;20033;-79
2021/05/11 06:33:37;;;;;;;21.48;2.22;;;23.60;56.30;;;;;;4828400;29;20376;-79
2021/05/11 06:36:04;;;;;;;6.55;2.50;;;23.60;54.00;;;;;;4852161;29;20042;-79
2021/05/11 06:38:30;;;;;;;11.60;2.13;;;23.50;54.40;;;;;;4832678;29;20030;-78
2021/05/11 06:40:56;;;;;;;5.13;1.93;;;23.60;54.20;;;;;;4849016;29;20022;-78
2021/05/11 06:43:27;;;;;;;13.23;2.07;;;23.50;54.30;;;;;;4842823;29;20061;-79
2021/05/11 06:48:27;;;;;;;6.40;2.13;;;23.50;53.30;;;;;;4837942;29;20037;-78
2021/05/11 06:53:37;;;;;;;6.80;2.90;;;23.60;54.40;;;;;;4840122;29;20025;-78
2021/05/11 06:56:05;;;;;;;6.07;2.10;;;23.70;54.20;;;;;;4833504;29;20061;-78
2021/05/11 06:58:31;;;;;;;6.97;2.22;;;23.80;53.90;;;;;;4834026;29;20031;-78
2021/05/11 07:00:57;;;;;;;29.70;2.83;;;23.80;53.00;;;;;;4813033;29;20098;-78
2021/05/11 07:03:23;;;;;;;16.27;2.35;;;23.90;53.40;;;;;;4849796;29;20048;-78
2021/05/11 07:05:51;;;;;;;9.18;2.33;;;24.00;52.70;;;;;;4829186;29;20033;-79
2021/05/11 07:08:25;;;;;;;7.00;2.00;;;24.20;52.20;;;;;;4835757;29;20050;-78
2021/05/11 07:10:55;;;;;;;11.25;2.30;;;24.10;52.00;;;;;;4842733;29;20236;-79
2021/05/11 07:13:21;;;;;;;13.73;1.95;;;24.00;51.60;;;;;;4839312;29;20051;-79
2021/05/11 07:15:47;;;;;;;7.10;1.95;;;24.00;52.70;;;;;;4839590;29;20046;-80
2021/05/11 07:18:22;;;;;;;5.88;1.88;;;23.90;52.10;;;;;;4854259;29;20036;-78
2021/05/11 07:20:50;;;;;;;5.35;2.33;;;23.90;51.90;;;;;;4827621;29;20030;-79
2021/05/11 07:23:20;;;;;;;15.70;2.60;;;24.00;53.00;;;;;;4824852;29;20022;-79
2021/05/11 07:31:00;;;;;;;9.82;2.35;;;24.60;50.80;;;;;;4842258;29;20053;-79
2021/05/11 07:33:31;;;;;;;16.02;2.28;;;24.60;51.00;;;;;;4857167;29;20033;-79
2021/05/11 07:35:56;;;;;;;8.18;2.30;;;24.70;50.40;;;;;;4844363;29;20057;-79
2021/05/11 07:38:26;;;;;;;6.72;2.17;;;24.80;51.10;;;;;;4833999;29;20137;-79
2021/05/11 07:40:53;;;;;;;5.75;1.90;;;24.90;50.70;;;;;;4826358;29;20229;-79
2021/05/11 07:43:21;;;;;;;10.05;2.72;;;25.10;50.30;;;;;;4838145;29;20050;-79
2021/05/11 08:02:05;;;;;;;13.45;2.05;;;26.00;47.10;;;;;;4790484;30;20062;-80
2021/05/11 08:28:31;;;;;;;7.63;2.15;;;27.00;42.90;;;;;;4688859;30;20053;-81
2021/05/11 08:30:57;;;;;;;8.43;2.28;;;27.00;42.90;;;;;;4699609;30;20264;-81
2021/05/11 08:33:23;;;;;;;5.93;1.73;;;27.10;43.20;;;;;;4713969;30;20084;-82
2021/05/11 08:35:50;;;;;;;3.95;1.40;;;27.30;43.50;;;;;;4714537;30;20112;-81
2021/05/11 08:38:15;;;;;;;8.98;1.77;;;27.60;42.90;;;;;;4714578;30;20057;-82
2021/05/11 08:40:41;;;;;;;5.32;1.77;;;27.90;43.10;;;;;;4714401;30;20045;-82
2021/05/11 08:43:29;;;;;;;9.20;1.70;;;28.20;41.80;;;;;;4714459;30;20045;-82
2021/05/11 08:45:56;;;;;;;9.25;2.22;;;28.50;40.90;;;;;;4713250;30;20042;-82
2021/05/11 08:48:23;;;;;;;7.18;2.05;;;28.70;40.30;;;;;;4695366;30;20057;-82
2021/05/11 08:50:57;;;;;;;6.47;1.60;;;28.70;37.50;;;;;;4706943;30;20041;-82
2021/05/11 09:26:59;;;;;;;9.68;1.83;;;29.50;37.10;;;;;;4795284;30;20050;-76
2021/05/11 09:29:29;;;;;;;8.50;2.25;;;29.60;36.50;;;;;;4785570;30;20050;-78
2021/05/11 09:32:19;;;;;;;7.65;1.63;;;29.50;36.20;;;;;;4789164;30;20036;-78
2021/05/11 09:52:02;;;;;;;8.15;1.92;;;29.90;35.70;;;;;;4842375;29;20038;-78
2021/05/11 09:57:04;;;;;;;8.90;1.50;;;30.10;35.70;;;;;;4832678;29;20129;-79
2021/05/11 10:48:19;;;;;;;4.93;1.60;;;30.60;34.80;;;;;;4827639;29;20066;-79
2021/05/11 10:50:47;;;;;;;9.52;1.50;;;30.80;33.80;;;;;;4825014;29;20027;-78
2021/05/11 10:53:33;;;;;;;15.05;1.58;;;30.90;33.60;;;;;;4819504;29;20034;-79
2021/05/11 10:56:21;;;;;;;12.00;1.50;;;31.10;33.80;;;;;;4825452;29;20108;-79
2021/05/11 11:01:55;;;;;;;7.93;1.60;;;31.00;33.50;;;;;;4749614;30;20043;-77
2021/05/11 11:04:31;;;;;;;5.63;1.92;;;30.90;32.80;;;;;;4734630;30;20143;-78
2021/05/11 11:07:00;;;;;;;5.65;1.20;;;30.90;32.40;;;;;;4759736;30;20036;-78
2021/05/11 11:09:33;;;;;;;8.77;1.48;;;30.90;32.90;;;;;;4761442;30;20119;-79
2021/05/11 11:12:01;;;;;;;6.15;1.30;;;31.00;32.80;;;;;;4749470;30;20044;-79
2021/05/11 11:14:38;;;;;;;7.85;1.50;;;31.20;33.30;;;;;;4744218;30;20351;-78
2021/05/11 11:17:06;;;;;;;9.43;1.50;;;31.40;33.30;;;;;;4760943;30;20047;-78
2021/05/11 11:19:33;;;;;;;9.43;1.30;;;31.50;31.60;;;;;;4752216;30;20046;-78
2021/05/11 11:23:32;;;;;;;;;;;31.40;31.90;;;;;;4761446;30;20028;-78
2021/05/11 11:24:51;;;;;;;4.72;1.33;;;31.40;31.90;;;;;;4735205;30;19942;-78
2021/05/11 11:27:32;;;;;;;9.47;1.53;;;31.40;32.60;;;;;;4761004;30;20048;-78
2021/05/11 11:30:01;;;;;;;9.15;1.30;;;31.50;32.50;;;;;;4761181;30;20109;-79
2021/05/11 11:32:27;;;;;;;9.10;1.42;;;31.50;33.00;;;;;;4760144;30;20235;-78
2021/05/11 11:34:55;;;;;;;10.40;2.08;;;31.50;32.60;;;;;;4755370;30;20363;-78
2021/05/11 11:37:24;;;;;;;7.43;1.70;;;31.60;31.50;;;;;;4817759;29;20034;-78
2021/05/11 11:39:52;;;;;;;6.65;1.10;;;31.40;32.50;;;;;;4847006;29;20036;-79
2021/05/11 11:42:37;;;;;;;7.28;1.38;;;31.40;31.30;;;;;;4836029;29;20326;-80
2021/05/11 11:45:05;;;;;;;9.40;1.40;;;31.30;32.00;;;;;;4839363;29;20080;-79
2021/05/11 11:47:33;;;;;;;8.48;1.98;;;31.50;30.50;;;;;;4833144;29;20053;-78
2021/05/11 11:50:03;;;;;;;31.48;2.65;;;31.40;31.70;;;;;;4818505;29;20066;-78
2021/05/11 11:52:36;;;;;;;6.38;1.40;;;31.50;31.70;;;;;;4813135;29;20026;-78
2021/05/11 12:00:17;;;;;;;9.35;1.35;;;31.80;30.40;;;;;;4827956;29;20034;-77
2021/05/11 12:02:52;;;;;;;3.38;1.15;;;31.70;30.00;;;;;;4840157;29;20019;-78
2021/05/11 12:05:19;;;;;;;6.68;1.60;;;31.70;30.00;;;;;;4821761;29;20400;-79
2021/05/11 12:08:19;;;;;;;8.30;1.45;;;31.80;31.00;;;;;;4834084;29;20029;-79
2021/05/11 12:10:33;;;;;;;9.55;1.23;;;32.00;30.10;;;;;;4821841;29;20087;-78
2021/05/11 12:13:04;;;;;;;10.02;1.90;;;32.10;29.00;;;;;;4850564;29;20018;-77
2021/05/11 12:15:30;;;;;;;9.00;1.50;;;31.90;29.40;;;;;;4848817;29;20233;-78
2021/05/11 12:18:04;;;;;;;9.13;1.83;;;31.90;30.00;;;;;;4831775;29;20030;-78
2021/05/11 12:20:30;;;;;;;5.15;1.77;;;32.10;30.00;;;;;;4849639;29;20308;-78
2021/05/11 12:23:06;;;;;;;9.33;1.77;;;32.20;29.80;;;;;;4828445;29;20051;-77
2021/05/11 12:25:32;;;;;;;9.65;1.80;;;32.40;29.60;;;;;;4829856;29;20069;-77
2021/05/11 12:27:58;;;;;;;8.70;1.50;;;32.50;29.90;;;;;;4815908;29;20040;-80
2021/05/11 12:30:42;;;;;;;12.07;1.63;;;32.50;29.10;;;;;;4833994;29;20029;-78
2021/05/11 12:33:10;;;;;;;19.10;1.95;;;32.50;28.90;;;;;;4839423;29;20109;-80
2021/05/11 12:35:37;;;;;;;11.73;3.17;;;32.40;28.90;;;;;;4840310;29;20030;-79
2021/05/11 12:38:15;;;;;;;10.68;2.30;;;32.40;29.20;;;;;;4841294;29;20022;-79
2021/05/11 12:40:52;;;;;;;12.98;4.03;;;32.40;29.60;;;;;;4817457;29;20037;-79
2021/05/11 12:43:36;;;;;;;;;;;32.50;30.00;;;;;;4841021;29;20031;-80
2021/05/11 12:46:01;;;;;;;10.73;1.63;;;32.60;30.20;;;;;;4845296;29;19948;-79
2021/05/11 12:48:27;;;;;;;8.63;2.77;;;32.80;30.20;;;;;;4839937;29;20336;-80
2021/05/11 12:50:53;;;;;;;4.47;1.60;;;32.90;30.00;;;;;;4842174;29;20026;-78
2021/05/11 12:56:09;;;;;;;7.47;1.58;;;32.70;29.70;;;;;;4827701;29;20083;-77
2021/05/11 13:01:23;;;;;;;;;;;32.30;29.90;;;;;;4838641;29;20093;-77
2021/05/11 13:16:09;;;;;;;4.28;1.30;;;31.40;30.50;;;;;;4808204;29;20076;-78
2021/05/11 13:26:27;;;;;;;7.28;2.22;;;31.80;30.80;;;;;;4808396;29;20368;-77
2021/05/11 13:29:01;;;;;;;19.23;4.53;;;31.90;31.60;;;;;;4817651;29;20045;-77
2021/05/11 13:34:11;;;;;;;10.80;2.00;;;32.30;30.40;;;;;;4816403;29;20106;-77
2021/05/11 13:36:40;;;;;;;6.55;1.30;;;32.30;30.30;;;;;;4783866;29;20039;-78
2021/05/11 13:39:07;;;;;;;7.15;1.73;;;32.50;30.30;;;;;;4800346;29;20027;-77
2021/05/11 13:41:33;;;;;;;5.88;1.67;;;32.40;30.00;;;;;;4801164;29;20027;-78
2021/05/11 13:44:00;;;;;;;11.43;1.37;;;32.40;29.50;;;;;;4814218;29;20105;-77
2021/05/11 13:46:26;;;;;;;10.88;1.60;;;32.50;29.90;;;;;;4821869;29;20058;-78
2021/05/11 13:48:51;;;;;;;6.90;1.43;;;32.90;30.60;;;;;;4810228;29;20254;-77
2021/05/11 13:51:20;;;;;;;11.87;1.83;;;33.00;29.60;;;;;;4847298;29;20096;-76
2021/05/11 13:53:50;;;;;;;17.98;1.83;;;32.80;29.70;;;;;;4843577;29;20047;-80
2021/05/11 14:04:02;;;;;;;11.88;1.67;;;31.50;30.90;;;;;;4849466;29;20036;-81
2021/05/11 14:06:29;;;;;;;11.13;1.65;;;31.80;30.20;;;;;;4837823;29;20030;-80
2021/05/11 14:08:55;;;;;;;10.13;1.75;;;31.90;30.00;;;;;;4839640;29;20038;-80
2021/05/11 14:11:21;;;;;;;11.13;1.70;;;31.90;30.00;;;;;;4827771;29;20053;-81
2021/05/11 14:13:47;;;;;;;6.45;1.13;;;31.80;30.30;;;;;;4839703;29;20290;-81
2021/05/11 14:16:13;;;;;;;9.90;1.83;;;31.90;30.40;;;;;;4825091;29;20065;-80
2021/05/11 14:18:39;;;;;;;4.95;1.48;;;32.00;29.90;;;;;;4824553;29;20131;-82
2021/05/11 14:21:06;;;;;;;4.30;1.50;;;31.90;29.70;;;;;;4818552;29;20042;-81
2021/05/11 14:23:32;;;;;;;14.10;1.58;;;31.80;29.60;;;;;;4827220;29;20210;-80
2021/05/11 14:25:58;;;;;;;4.63;1.33;;;32.00;29.70;;;;;;4833226;29;20034;-81
2021/05/11 14:28:24;;;;;;;7.70;1.45;;;32.00;29.40;;;;;;4828520;29;20042;-81
2021/05/11 14:30:50;;;;;;;10.00;1.67;;;32.00;29.30;;;;;;4818087;29;20030;-80
2021/05/11 14:33:16;;;;;;;6.17;1.50;;;32.10;29.90;;;;;;4817544;29;20344;-79
2021/05/11 14:35:42;;;;;;;13.23;2.97;;;32.20;30.00;;;;;;4839007;29;20232;-79
2021/05/11 14:38:08;;;;;;;5.07;1.55;;;32.10;30.10;;;;;;4815631;29;20361;-77
2021/05/11 14:40:34;;;;;;;6.63;1.27;;;32.30;30.40;;;;;;4824081;29;20095;-77
2021/05/11 14:43:00;;;;;;;11.23;1.50;;;32.20;30.50;;;;;;4820269;29;20030;-77
2021/05/11 14:45:30;;;;;;;4.77;1.53;;;32.20;30.30;;;;;;4845809;29;20038;-77
2021/05/11 14:47:56;;;;;;;4.97;1.40;;;32.10;30.20;;;;;;4841087;29;20080;-78
2021/05/11 14:50:23;;;;;;;5.68;1.30;;;32.10;30.00;;;;;;4819015;29;20027;-77
2021/05/11 14:52:54;;;;;;;4.45;1.20;;;32.10;30.10;;;;;;4809821;29;20030;-78
2021/05/11 14:55:24;;;;;;;4.28;1.30;;;32.00;29.90;;;;;;4829310;29;20078;-77
2021/05/11 14:57:56;;;;;;;8.15;1.25;;;31.80;30.30;;;;;;4830567;29;20026;-77
2021/05/11 15:00:23;;;;;;;11.48;1.70;;;31.80;30.40;;;;;;4830212;29;20034;-78
2021/05/11 15:02:49;;;;;;;7.43;1.20;;;31.80;30.10;;;;;;4819169;29;20089;-78
2021/05/11 15:05:14;;;;;;;34.00;1.90;;;31.80;30.00;;;;;;4825200;29;20026;-78
2021/05/11 15:07:40;;;;;;;6.53;1.50;;;31.80;30.20;;;;;;4853949;29;20026;-78
2021/05/11 15:10:07;;;;;;;6.47;1.40;;;31.70;30.20;;;;;;4827914;29;20034;-78
2021/05/11 15:12:33;;;;;;;;;;;31.60;30.80;;;;;;4836026;29;20025;-79
2021/05/11 15:14:59;;;;;;;6.40;1.50;;;31.60;30.60;;;;;;4844164;29;19942;-77
2021/05/11 15:20:00;;;;;;;3.60;1.30;;;31.60;30.70;;;;;;4840753;29;20022;-77
2021/05/11 15:22:28;;;;;;;6.38;1.38;;;31.60;30.80;;;;;;4839355;29;20026;-75
2021/05/11 15:24:55;;;;;;;6.68;1.50;;;31.70;30.80;;;;;;4842910;29;20030;-77
2021/05/11 15:27:21;;;;;;;6.28;1.30;;;31.70;30.90;;;;;;4853047;29;20034;-77
2021/05/11 15:29:47;;;;;;;6.22;1.30;;;31.60;30.70;;;;;;4832813;29;20043;-77
2021/05/11 15:32:38;;;;;;;6.70;1.53;;;31.70;31.40;;;;;;4856457;29;20026;-77
2021/05/11 15:35:11;;;;;;;9.43;1.55;;;31.80;30.70;;;;;;4849973;29;20044;-77
2021/05/11 15:37:38;;;;;;;5.32;1.13;;;31.80;30.90;;;;;;4855938;29;20101;-76
2021/05/11 15:40:07;;;;;;;10.23;1.70;;;31.70;30.80;;;;;;4840413;29;20030;-78
2021/05/11 15:42:32;;;;;;;5.85;1.80;;;31.70;31.20;;;;;;4849785;29;20381;-76
2021/05/11 15:44:58;;;;;;;41.73;3.17;;;31.70;30.90;;;;;;4829960;29;20022;-77
2021/05/11 15:47:24;;;;;;;7.87;1.43;;;31.60;31.00;;;;;;4857120;29;20052;-78
2021/05/11 15:49:50;;;;;;;11.18;1.95;;;31.50;31.10;;;;;;4857352;29;20098;-77
2021/05/11 15:52:16;;;;;;;2.57;1.30;;;31.40;31.70;;;;;;4842917;29;20030;-78
2021/05/11 15:54:42;;;;;;;4.50;1.30;;;31.50;32.00;;;;;;4833857;29;20034;-78
2021/05/11 15:57:08;;;;;;;8.53;1.73;;;31.50;32.60;;;;;;4855627;29;20105;-78
2021/05/11 15:59:34;;;;;;;6.43;1.30;;;31.40;31.40;;;;;;4844381;29;20025;-78
2021/05/11 16:02:00;;;;;;;10.03;1.80;;;31.40;32.00;;;;;;4843908;29;20038;-77
2021/05/11 16:04:27;;;;;;;9.32;1.67;;;31.40;31.60;;;;;;4830896;29;20275;-78
2021/05/11 16:06:53;;;;;;;5.72;1.52;;;31.50;31.70;;;;;;4841859;29;20124;-77
2021/05/11 16:09:18;;;;;;;5.07;1.20;;;31.40;31.80;;;;;;4844779;29;20305;-78
2021/05/11 16:11:44;;;;;;;4.30;1.30;;;31.10;31.70;;;;;;4838161;29;20093;-77
2021/05/11 16:14:10;;;;;;;3.20;1.20;;;30.70;32.10;;;;;;4834398;29;20097;-78
2021/05/11 16:16:36;;;;;;;6.30;1.33;;;30.50;32.50;;;;;;4821562;29;20037;-77
2021/05/11 16:19:02;;;;;;;3.73;1.77;;;30.30;32.30;;;;;;4834472;29;20089;-77
2021/05/11 16:21:28;;;;;;;3.97;1.40;;;30.20;32.40;;;;;;4854230;29;20040;-78
2021/05/11 16:23:56;;;;;;;6.20;1.37;;;30.30;33.00;;;;;;4849080;29;20053;-78
2021/05/11 16:26:25;;;;;;;6.30;1.52;;;30.30;32.70;;;;;;4853444;29;20113;-78
2021/05/11 16:28:51;;;;;;;8.32;1.63;;;30.30;33.20;;;;;;4861504;29;20057;-78
2021/05/11 16:31:18;;;;;;;;;;;30.30;32.70;;;;;;4856433;29;20064;-76
2021/05/11 16:33:43;;;;;;;5.85;1.35;;;30.20;33.10;;;;;;4850741;29;20238;-77
2021/05/11 16:36:09;;;;;;;7.50;1.20;;;30.10;32.80;;;;;;4831423;29;20038;-77
2021/05/11 16:38:35;;;;;;;5.60;1.50;;;29.80;33.00;;;;;;4822313;29;20027;-77
2021/05/11 16:41:01;;;;;;;5.07;1.30;;;29.60;33.60;;;;;;4849341;29;20024;-81
2021/05/11 16:43:27;;;;;;;6.05;1.70;;;29.40;33.50;;;;;;4854122;29;20032;-78
2021/05/11 16:45:53;;;;;;;5.93;1.27;;;29.30;34.90;;;;;;4861097;29;20025;-78
2021/05/11 16:48:19;;;;;;;2.80;1.30;;;29.20;34.30;;;;;;4824251;29;20038;-75
2021/05/11 16:50:44;;;;;;;10.27;1.63;;;29.10;34.40;;;;;;4805570;29;20277;-76
2021/05/11 16:53:15;;;;;;;12.03;1.80;;;29.00;34.40;;;;;;4829130;29;20109;-79
2021/05/11 16:55:42;;;;;;;3.90;1.42;;;28.90;34.60;;;;;;4824344;29;20074;-81
2021/05/11 16:58:08;;;;;;;;;;;28.80;34.60;;;;;;4858114;29;20017;-77
2021/05/11 17:00:35;;;;;;;5.57;1.57;;;28.70;34.90;;;;;;4843104;29;20226;-77
2021/05/11 17:03:02;;;;;;;2.88;1.20;;;28.60;35.00;;;;;;4844491;29;20052;-78
2021/05/11 17:05:28;;;;;;;6.05;1.48;;;28.50;35.10;;;;;;4826552;29;20037;-78
2021/05/11 17:07:55;;;;;;;4.07;1.35;;;28.40;35.20;;;;;;4843351;29;20063;-78
2021/05/11 17:10:22;;;;;;;6.93;1.63;;;28.30;35.10;;;;;;4825843;29;20038;-77
2021/05/11 17:12:49;;;;;;;7.78;1.30;;;28.20;35.30;;;;;;4848135;29;20030;-77
2021/05/11 17:15:16;;;;;;;3.90;1.83;;;28.10;35.20;;;;;;4841607;29;20179;-78
2021/05/11 17:17:42;;;;;;;7.35;1.50;;;28.10;36.00;;;;;;4857977;29;20030;-77
2021/05/11 17:20:08;;;;;;;10.30;1.80;;;27.90;35.90;;;;;;4837399;29;20030;-77
2021/05/11 17:22:34;;;;;;;6.35;1.67;;;27.90;36.20;;;;;;4817036;29;20122;-77
2021/05/11 17:25:00;;;;;;;7.15;1.70;;;27.90;36.20;;;;;;4822509;29;20149;-78
2021/05/11 17:27:29;;;;;;;10.20;1.63;;;27.80;36.40;;;;;;4835797;29;20034;-77
2021/05/11 17:29:55;;;;;;;7.93;2.13;;;27.80;36.50;;;;;;4823455;29;20034;-77
2021/05/11 17:32:21;;;;;;;7.80;2.00;;;27.70;36.90;;;;;;4849380;29;20046;-78
2021/05/11 17:34:47;;;;;;;7.15;1.67;;;27.60;36.60;;;;;;4841542;29;20026;-78
2021/05/11 17:37:13;;;;;;;7.05;1.88;;;27.50;37.10;;;;;;4841867;29;20135;-79
2021/05/11 17:39:39;;;;;;;3.33;1.58;;;27.40;37.30;;;;;;4812299;29;20034;-77
2021/05/11 17:42:08;;;;;;;8.10;1.80;;;27.40;38.00;;;;;;4835919;29;20073;-77
2021/05/11 17:44:35;;;;;;;3.40;1.58;;;27.30;37.40;;;;;;4832977;29;20021;-78
2021/05/11 17:47:02;;;;;;;6.05;1.95;;;27.20;37.30;;;;;;4844132;29;20077;-78
2021/05/11 17:49:29;;;;;;;4.93;1.65;;;27.10;37.40;;;;;;4829540;29;20117;-78
2021/05/11 17:51:55;;;;;;;3.58;1.50;;;27.10;37.80;;;;;;4858554;29;20049;-78
2021/05/11 17:54:21;;;;;;;6.33;1.57;;;27.00;37.80;;;;;;4848394;29;20243;-78
2021/05/11 17:56:47;;;;;;;6.75;1.50;;;26.90;38.00;;;;;;4826846;29;20062;-77
2021/05/11 17:59:12;;;;;;;6.55;1.70;;;26.80;37.90;;;;;;4844837;29;20051;-80
2021/05/11 18:01:38;;;;;;;6.90;1.50;;;26.70;37.90;;;;;;4842700;29;20030;-80
2021/05/11 18:04:04;;;;;;;4.85;1.40;;;26.70;38.00;;;;;;4833009;29;20034;-80
2021/05/11 18:06:30;;;;;;;3.72;1.60;;;26.60;38.10;;;;;;4849662;29;20085;-80
2021/05/11 18:08:55;;;;;;;11.30;1.75;;;26.60;38.30;;;;;;4846428;29;20070;-80
2021/05/11 18:11:21;;;;;;;2.80;1.65;;;26.50;38.30;;;;;;4845508;29;20097;-80
2021/05/11 18:13:47;;;;;;;6.18;1.42;;;26.50;38.40;;;;;;4848465;29;20349;-80
2021/05/11 18:16:13;;;;;;;4.00;1.63;;;26.40;38.50;;;;;;4850025;29;20057;-80
2021/05/11 18:18:43;;;;;;;4.00;1.60;;;26.30;38.60;;;;;;4843570;29;20030;-80
2021/05/11 18:21:09;;;;;;;4.68;1.70;;;26.20;38.70;;;;;;4829959;29;20295;-80
2021/05/11 18:23:35;;;;;;;6.57;1.90;;;26.20;39.00;;;;;;4843684;29;20037;-80
2021/05/11 18:26:01;;;;;;;7.53;2.03;;;26.10;39.00;;;;;;4828633;29;20030;-79
2021/05/11 18:28:27;;;;;;;6.35;1.70;;;26.00;38.80;;;;;;4847582;29;20034;-80
2021/05/11 18:30:53;;;;;;;2.92;1.45;;;26.00;38.80;;;;;;4845812;29;20037;-79
2021/05/11 18:33:19;;;;;;;3.72;1.45;;;26.00;39.00;;;;;;4836535;29;20026;-79
2021/05/11 18:35:47;;;;;;;6.45;1.40;;;25.90;39.00;;;;;;4831727;29;20052;-79
2021/05/11 18:38:18;;;;;;;7.45;1.50;;;25.90;38.90;;;;;;4841607;29;20034;-79
2021/05/11 18:40:44;;;;;;;5.97;1.65;;;25.90;38.90;;;;;;4843449;29;20041;-80
2021/05/11 18:43:10;;;;;;;10.23;1.80;;;25.80;39.30;;;;;;4830748;29;20220;-80
2021/05/11 18:45:36;;;;;;;3.88;1.67;;;25.70;39.00;;;;;;4819420;29;20064;-80
2021/05/11 18:48:02;;;;;;;5.85;1.50;;;25.70;39.60;;;;;;4829284;29;20050;-79
2021/05/11 18:50:30;;;;;;;7.03;2.00;;;25.70;38.90;;;;;;4823495;29;20051;-80
2021/05/11 18:52:57;;;;;;;10.35;1.63;;;25.70;39.10;;;;;;4844510;29;20052;-80
2021/05/11 18:55:24;;;;;;;3.05;1.45;;;25.70;39.20;;;;;;4828497;29;20592;-80
2021/05/11 18:57:50;;;;;;;;;;;25.70;39.10;;;;;;4845769;29;20026;-80
2021/05/11 19:00:17;;;;;;;6.70;1.73;;;25.60;39.00;;;;;;4825341;29;20451;-79
2021/05/11 19:02:42;;;;;;;;;;;25.60;39.00;;;;;;4823645;29;20301;-80